createdAt,value
2023-05-18T00:00:26.275Z,26.06
2023-05-18T00:00:56.367Z,26.06
2023-05-18T00:01:26.457Z,26.05
2023-05-18T00:01:56.537Z,26.03
2023-05-18T00:02:26.828Z,26.05
2023-05-18T00:02:56.672Z,26.03
2023-05-18T00:03:26.831Z,26.03
2023-05-18T00:03:56.722Z,26.02
2023-05-18T00:04:26.725Z,26.03
2023-05-18T00:04:56.817Z,26.02
2023-05-18T00:05:26.789Z,26.02
2023-05-18T00:05:56.837Z,26.03
2023-05-18T00:06:26.864Z,26.01
2023-05-18T00:06:56.895Z,26.02
2023-05-18T00:07:26.897Z,26.05
2023-05-18T00:07:56.912Z,26.06
2023-05-18T00:08:26.912Z,26.08
2023-05-18T00:08:56.932Z,26.05
2023-05-18T00:09:26.937Z,26.08
2023-05-18T00:09:56.980Z,26.05
2023-05-18T00:10:27.029Z,26.03
2023-05-18T00:10:57.036Z,26.01
2023-05-18T00:11:27.045Z,26.03
2023-05-18T00:11:57.053Z,25.96
2023-05-18T00:12:27.075Z,25.98
2023-05-18T00:12:57.083Z,25.96
2023-05-18T00:13:27.089Z,25.98
2023-05-18T00:13:57.101Z,25.98
2023-05-18T00:14:27.094Z,25.96
2023-05-18T00:14:57.107Z,25.96
2023-05-18T00:15:27.275Z,25.96
2023-05-18T00:15:57.231Z,25.98
2023-05-18T00:16:27.253Z,25.95
2023-05-18T00:16:57.249Z,25.98
2023-05-18T00:17:27.303Z,25.98
2023-05-18T00:17:57.406Z,25.96
2023-05-18T00:18:27.330Z,25.98
2023-05-18T00:18:57.362Z,25.99
2023-05-18T00:19:27.385Z,25.98
2023-05-18T00:19:57.441Z,25.94
2023-05-18T00:20:27.444Z,25.98
2023-05-18T00:20:57.450Z,25.99
2023-05-18T00:21:27.461Z,25.96
2023-05-18T00:21:57.492Z,25.96
2023-05-18T00:22:27.501Z,25.96
2023-05-18T00:22:57.492Z,25.95
2023-05-18T00:23:27.508Z,25.95
2023-05-18T00:23:57.514Z,25.95
2023-05-18T00:24:27.534Z,25.96
2023-05-18T00:24:57.542Z,25.95
2023-05-18T00:25:27.745Z,25.98
2023-05-18T00:25:57.561Z,25.96
2023-05-18T00:26:27.560Z,25.98
2023-05-18T00:26:57.591Z,25.95
2023-05-18T00:27:27.614Z,25.96
2023-05-18T00:27:57.612Z,25.95
2023-05-18T00:28:27.639Z,25.95
2023-05-18T00:28:57.645Z,25.94
2023-05-18T00:29:27.699Z,25.94
2023-05-18T00:29:57.692Z,25.92
2023-05-18T00:30:27.700Z,25.95
2023-05-18T00:30:57.719Z,25.95
2023-05-18T00:31:27.769Z,25.94
2023-05-18T00:31:57.896Z,25.95
2023-05-18T00:32:27.910Z,25.98
2023-05-18T00:32:57.939Z,25.94
2023-05-18T00:33:28.027Z,25.95
2023-05-18T00:33:57.997Z,25.94
2023-05-18T00:34:28.008Z,25.96
2023-05-18T00:34:58.007Z,25.98
2023-05-18T00:35:28.158Z,25.96
2023-05-18T00:35:58.064Z,25.98
2023-05-18T00:36:28.093Z,25.96
2023-05-18T00:36:58.097Z,25.94
2023-05-18T00:37:28.136Z,25.96
2023-05-18T00:37:58.125Z,25.94
2023-05-18T00:38:58.207Z,25.95
2023-05-18T00:39:28.217Z,25.98
2023-05-18T00:39:58.219Z,25.95
2023-05-18T00:40:28.232Z,25.95
2023-05-18T00:40:58.240Z,25.95
2023-05-18T00:41:28.257Z,25.94
2023-05-18T00:41:58.250Z,25.96
2023-05-18T00:42:28.257Z,25.94
2023-05-18T00:42:58.265Z,25.94
2023-05-18T00:43:28.284Z,25.94
2023-05-18T00:43:58.291Z,25.98
2023-05-18T00:44:28.298Z,25.98
2023-05-18T00:44:58.308Z,25.95
2023-05-18T00:45:28.590Z,25.95
2023-05-18T00:45:58.470Z,25.91
2023-05-18T00:46:28.482Z,25.89
2023-05-18T00:46:58.448Z,25.88
2023-05-18T00:47:28.458Z,25.85
2023-05-18T00:47:58.508Z,25.89
2023-05-18T00:48:28.499Z,25.87
2023-05-18T00:48:58.499Z,25.89
2023-05-18T00:49:28.500Z,25.87
2023-05-18T00:49:58.513Z,25.87
2023-05-18T00:50:28.527Z,25.87
2023-05-18T00:50:58.532Z,25.87
2023-05-18T00:51:28.534Z,25.88
2023-05-18T00:51:58.547Z,25.88
2023-05-18T00:52:28.544Z,25.87
2023-05-18T00:52:58.585Z,25.88
2023-05-18T00:53:28.571Z,25.87
2023-05-18T00:54:28.627Z,25.87
2023-05-18T00:54:58.735Z,25.87
2023-05-18T00:55:29.176Z,25.88
2023-05-18T00:55:58.924Z,25.92
2023-05-18T00:56:29.001Z,25.88
2023-05-18T00:56:59.091Z,25.89
2023-05-18T00:57:29.173Z,25.88
2023-05-18T00:57:59.260Z,25.85
2023-05-18T00:58:29.342Z,25.88
2023-05-18T00:58:59.428Z,25.89
2023-05-18T00:59:29.535Z,25.89
2023-05-18T00:59:59.624Z,25.91
2023-05-18T01:00:29.712Z,25.91
2023-05-18T01:00:59.811Z,25.89
2023-05-18T01:01:29.937Z,25.91
2023-05-18T01:01:59.958Z,25.91
2023-05-18T01:02:30.098Z,25.92
2023-05-18T01:03:00.362Z,25.92
2023-05-18T01:03:30.167Z,25.92
2023-05-18T01:04:00.165Z,25.91
2023-05-18T01:04:30.142Z,25.91
2023-05-18T01:05:00.240Z,25.91
2023-05-18T01:05:30.557Z,25.88
2023-05-18T01:06:00.321Z,25.87
2023-05-18T01:06:30.334Z,25.88
2023-05-18T01:07:00.340Z,25.88
2023-05-18T01:07:30.342Z,25.87
2023-05-18T01:08:00.368Z,25.88
2023-05-18T01:08:30.363Z,25.87
2023-05-18T01:09:30.470Z,25.87
2023-05-18T01:10:00.495Z,25.89
2023-05-18T01:10:30.494Z,25.85
2023-05-18T01:11:00.562Z,25.88
2023-05-18T01:11:30.645Z,25.87
2023-05-18T01:12:00.597Z,25.85
2023-05-18T01:12:30.598Z,25.85
2023-05-18T01:13:00.611Z,25.87
2023-05-18T01:13:30.639Z,25.85
2023-05-18T01:14:00.653Z,25.91
2023-05-18T01:14:30.923Z,25.91
2023-05-18T01:15:00.677Z,25.88
2023-05-18T01:15:30.860Z,25.88
2023-05-18T01:16:00.752Z,25.88
2023-05-18T01:16:30.784Z,25.89
2023-05-18T01:17:00.800Z,25.88
2023-05-18T01:17:30.811Z,25.84
2023-05-18T01:18:00.950Z,25.85
2023-05-18T01:18:30.826Z,25.84
2023-05-18T01:19:00.995Z,25.84
2023-05-18T01:19:30.838Z,25.84
2023-05-18T01:20:00.845Z,25.80
2023-05-18T01:20:30.850Z,25.78
2023-05-18T01:21:00.881Z,25.78
2023-05-18T01:21:30.873Z,25.77
2023-05-18T01:22:00.885Z,25.78
2023-05-18T01:22:30.886Z,25.78
2023-05-18T01:23:00.918Z,25.77
2023-05-18T01:23:30.972Z,25.78
2023-05-18T01:24:00.937Z,25.78
2023-05-18T01:25:01.021Z,25.77
2023-05-18T01:25:31.309Z,25.75
2023-05-18T01:26:01.051Z,25.75
2023-05-18T01:26:31.048Z,25.77
2023-05-18T01:27:01.081Z,25.74
2023-05-18T01:27:31.084Z,25.74
2023-05-18T01:28:01.112Z,25.74
2023-05-18T01:28:31.132Z,25.71
2023-05-18T01:29:01.114Z,25.74
2023-05-18T01:29:31.130Z,25.75
2023-05-18T01:30:01.136Z,25.74
2023-05-18T01:30:31.144Z,25.74
2023-05-18T01:31:01.209Z,25.75
2023-05-18T01:31:31.238Z,25.75
2023-05-18T01:32:01.275Z,25.75
2023-05-18T01:32:31.317Z,25.73
2023-05-18T01:33:01.316Z,25.74
2023-05-18T01:33:31.305Z,25.75
2023-05-18T01:34:01.316Z,25.74
2023-05-18T01:34:31.344Z,25.73
2023-05-18T01:35:01.339Z,25.77
2023-05-18T01:35:31.573Z,25.73
2023-05-18T01:36:01.442Z,25.77
2023-05-18T01:36:31.449Z,25.73
2023-05-18T01:37:01.457Z,25.77
2023-05-18T01:37:31.483Z,25.73
2023-05-18T01:38:01.495Z,25.75
2023-05-18T01:38:31.497Z,25.75
2023-05-18T01:39:01.656Z,25.75
2023-05-18T01:39:31.558Z,25.73
2023-05-18T01:40:01.572Z,25.74
2023-05-18T01:40:31.577Z,25.75
2023-05-18T01:41:01.589Z,25.75
2023-05-18T01:41:31.591Z,25.73
2023-05-18T01:42:01.611Z,25.75
2023-05-18T01:42:31.631Z,25.73
2023-05-18T01:43:01.632Z,25.74
2023-05-18T01:43:31.637Z,25.78
2023-05-18T01:44:31.709Z,25.78
2023-05-18T01:45:01.721Z,25.78
2023-05-18T01:45:31.911Z,25.78
2023-05-18T01:46:31.839Z,25.75
2023-05-18T01:47:01.864Z,25.77
2023-05-18T01:47:31.982Z,25.75
2023-05-18T01:48:02.029Z,25.77
2023-05-18T01:48:31.997Z,25.75
2023-05-18T01:49:01.999Z,25.77
2023-05-18T01:49:32.014Z,25.77
2023-05-18T01:50:02.021Z,25.80
2023-05-18T01:50:32.031Z,25.80
2023-05-18T01:51:02.028Z,25.80
2023-05-18T01:51:32.054Z,25.78
2023-05-18T01:52:02.049Z,25.80
2023-05-18T01:52:32.065Z,25.75
2023-05-18T01:53:02.077Z,25.74
2023-05-18T01:53:32.076Z,25.73
2023-05-18T01:54:02.112Z,25.74
2023-05-18T01:54:32.117Z,25.71
2023-05-18T01:55:02.180Z,25.68
2023-05-18T01:55:32.420Z,25.68
2023-05-18T01:56:02.312Z,25.67
2023-05-18T01:56:32.390Z,25.66
2023-05-18T01:57:02.469Z,25.66
2023-05-18T01:57:32.564Z,25.66
2023-05-18T01:58:02.639Z,25.64
2023-05-18T01:58:32.722Z,25.66
2023-05-18T01:59:02.805Z,25.63
2023-05-18T01:59:32.892Z,25.64
2023-05-18T02:00:03.014Z,25.64
2023-05-18T02:00:33.122Z,25.63
2023-05-18T02:01:03.095Z,25.63
2023-05-18T02:01:33.220Z,25.61
2023-05-18T02:02:03.436Z,25.60
2023-05-18T02:02:33.404Z,25.63
2023-05-18T02:03:03.319Z,25.64
2023-05-18T02:03:33.499Z,25.66
2023-05-18T02:04:03.445Z,25.63
2023-05-18T02:04:33.398Z,25.64
2023-05-18T02:05:03.418Z,25.66
2023-05-18T02:05:33.428Z,25.63
2023-05-18T02:06:03.436Z,25.64
2023-05-18T02:06:33.443Z,25.66
2023-05-18T02:07:03.457Z,25.64
2023-05-18T02:07:33.473Z,25.67
2023-05-18T02:08:03.479Z,25.70
2023-05-18T02:08:33.465Z,25.68
2023-05-18T02:09:03.486Z,25.67
2023-05-18T02:09:33.505Z,25.70
2023-05-18T02:10:03.543Z,25.68
2023-05-18T02:10:33.529Z,25.70
2023-05-18T02:11:33.638Z,25.70
2023-05-18T02:12:03.664Z,25.71
2023-05-18T02:12:33.672Z,25.70
2023-05-18T02:13:03.686Z,25.68
2023-05-18T02:13:33.693Z,25.70
2023-05-18T02:14:03.725Z,25.68
2023-05-18T02:14:33.744Z,25.66
2023-05-18T02:15:03.755Z,25.66
2023-05-18T02:15:33.771Z,25.63
2023-05-18T02:16:03.834Z,25.64
2023-05-18T02:16:33.880Z,25.63
2023-05-18T02:17:03.926Z,25.61
2023-05-18T02:17:33.972Z,25.63
2023-05-18T02:18:04.003Z,25.63
2023-05-18T02:18:34.127Z,25.66
2023-05-18T02:19:04.168Z,25.60
2023-05-18T02:19:34.176Z,25.61
2023-05-18T02:20:04.192Z,25.64
2023-05-18T02:20:34.203Z,25.61
2023-05-18T02:21:04.246Z,25.66
2023-05-18T02:21:34.246Z,25.64
2023-05-18T02:22:04.260Z,25.67
2023-05-18T02:22:34.264Z,25.64
2023-05-18T02:23:04.263Z,25.64
2023-05-18T02:23:34.321Z,25.64
2023-05-18T02:24:04.279Z,25.63
2023-05-18T02:24:34.299Z,25.61
2023-05-18T02:25:04.301Z,25.64
2023-05-18T02:25:34.338Z,25.64
2023-05-18T02:26:04.322Z,25.67
2023-05-18T02:27:04.412Z,25.66
2023-05-18T02:27:34.420Z,25.64
2023-05-18T02:28:04.424Z,25.60
2023-05-18T02:28:34.452Z,25.56
2023-05-18T02:29:04.445Z,25.56
2023-05-18T02:29:34.468Z,25.53
2023-05-18T02:30:04.469Z,25.54
2023-05-18T02:30:34.479Z,25.51
2023-05-18T02:31:04.483Z,25.49
2023-05-18T02:31:34.531Z,25.50
2023-05-18T02:32:04.555Z,25.49
2023-05-18T02:32:34.628Z,25.50
2023-05-18T02:33:04.715Z,25.50
2023-05-18T02:33:34.712Z,25.51
2023-05-18T02:34:04.767Z,25.49
2023-05-18T02:34:34.734Z,25.49
2023-05-18T02:35:04.758Z,25.50
2023-05-18T02:35:34.771Z,25.49
2023-05-18T02:36:04.788Z,25.47
2023-05-18T02:36:34.806Z,25.47
2023-05-18T02:37:04.798Z,25.44
2023-05-18T02:37:34.848Z,25.46
2023-05-18T02:38:04.863Z,25.43
2023-05-18T02:38:34.876Z,25.49
2023-05-18T02:39:04.978Z,25.46
2023-05-18T02:39:34.894Z,25.46
2023-05-18T02:40:04.901Z,25.46
2023-05-18T02:40:34.907Z,25.46
2023-05-18T02:41:04.940Z,25.47
2023-05-18T02:41:34.944Z,25.49
2023-05-18T02:42:04.981Z,25.51
2023-05-18T02:42:35.012Z,25.53
2023-05-18T02:43:04.994Z,25.54
2023-05-18T02:43:35.008Z,25.53
2023-05-18T02:44:05.020Z,25.56
2023-05-18T02:44:35.024Z,25.54
2023-05-18T02:45:05.034Z,25.56
2023-05-18T02:45:35.099Z,25.56
2023-05-18T02:46:05.091Z,25.57
2023-05-18T02:46:35.162Z,25.56
2023-05-18T02:47:05.161Z,25.54
2023-05-18T02:47:35.248Z,25.56
2023-05-18T02:48:05.325Z,25.57
2023-05-18T02:48:35.355Z,25.57
2023-05-18T02:49:05.376Z,25.57
2023-05-18T02:49:35.385Z,25.60
2023-05-18T02:50:05.394Z,25.60
2023-05-18T02:50:35.415Z,25.56
2023-05-18T02:51:05.449Z,25.57
2023-05-18T02:51:35.470Z,25.56
2023-05-18T02:52:05.471Z,25.53
2023-05-18T02:53:05.569Z,25.54
2023-05-18T02:53:35.562Z,25.53
2023-05-18T02:54:05.605Z,25.54
2023-05-18T02:54:35.666Z,25.54
2023-05-18T02:55:05.742Z,25.54
2023-05-18T02:55:35.839Z,25.54
2023-05-18T02:56:05.942Z,25.51
2023-05-18T02:56:36.044Z,25.54
2023-05-18T02:57:06.036Z,25.54
2023-05-18T02:57:36.121Z,25.51
2023-05-18T02:58:06.245Z,25.51
2023-05-18T02:58:36.313Z,25.53
2023-05-18T02:59:08.699Z,25.53
2023-05-18T02:59:36.405Z,25.56
2023-05-18T03:00:06.490Z,25.54
2023-05-18T03:00:36.603Z,25.53
2023-05-18T03:01:06.724Z,25.51
2023-05-18T03:01:36.757Z,25.54
2023-05-18T03:02:06.738Z,25.57
2023-05-18T03:02:36.810Z,25.56
2023-05-18T03:03:06.924Z,25.56
2023-05-18T03:03:36.880Z,25.53
2023-05-18T03:04:06.895Z,25.56
2023-05-18T03:04:36.902Z,25.53
2023-05-18T03:05:06.926Z,25.53
2023-05-18T03:05:36.946Z,25.56
2023-05-18T03:06:06.952Z,25.51
2023-05-18T03:06:36.954Z,25.49
2023-05-18T03:07:06.963Z,25.49
2023-05-18T03:07:36.966Z,25.43
2023-05-18T03:08:06.966Z,25.40
2023-05-18T03:08:36.966Z,25.39
2023-05-18T03:09:37.073Z,25.37
2023-05-18T03:10:07.098Z,25.36
2023-05-18T03:10:37.102Z,25.36
2023-05-18T03:11:37.173Z,25.36
2023-05-18T03:12:07.216Z,25.34
2023-05-18T03:12:37.208Z,25.33
2023-05-18T03:13:37.288Z,25.32
2023-05-18T03:14:07.294Z,25.32
2023-05-18T03:14:37.329Z,25.33
2023-05-18T03:15:07.349Z,25.33
2023-05-18T03:15:37.355Z,25.30
2023-05-18T03:16:07.360Z,25.30
2023-05-18T03:16:37.428Z,25.29
2023-05-18T03:17:07.446Z,25.33
2023-05-18T03:17:37.451Z,25.32
2023-05-18T03:18:07.466Z,25.33
2023-05-18T03:18:37.536Z,25.33
2023-05-18T03:19:07.625Z,25.33
2023-05-18T03:19:37.660Z,25.33
2023-05-18T03:20:07.659Z,25.36
2023-05-18T03:20:37.668Z,25.34
2023-05-18T03:21:07.696Z,25.33
2023-05-18T03:21:37.699Z,25.30
2023-05-18T03:22:07.716Z,25.33
2023-05-18T03:22:37.712Z,25.39
2023-05-18T03:23:07.717Z,25.39
2023-05-18T03:23:37.713Z,25.40
2023-05-18T03:24:07.751Z,25.43
2023-05-18T03:24:37.762Z,25.41
2023-05-18T03:25:07.766Z,25.43
2023-05-18T03:25:37.767Z,25.44
2023-05-18T03:26:07.773Z,25.44
2023-05-18T03:26:37.774Z,25.47
2023-05-18T03:27:07.784Z,25.44
2023-05-18T03:27:37.812Z,25.46
2023-05-18T03:28:07.791Z,25.43
2023-05-18T03:28:37.933Z,25.40
2023-05-18T03:29:07.820Z,25.36
2023-05-18T03:30:07.928Z,25.34
2023-05-18T03:30:37.947Z,25.32
2023-05-18T03:31:07.981Z,25.36
2023-05-18T03:31:38.090Z,25.30
2023-05-18T03:32:07.979Z,25.30
2023-05-18T03:32:38.156Z,25.30
2023-05-18T03:33:08.118Z,25.30
2023-05-18T03:33:38.189Z,25.29
2023-05-18T03:34:08.155Z,25.28
2023-05-18T03:34:38.154Z,25.26
2023-05-18T03:35:08.158Z,25.26
2023-05-18T03:35:38.176Z,25.26
2023-05-18T03:36:08.171Z,25.28
2023-05-18T03:36:38.201Z,25.26
2023-05-18T03:37:08.186Z,25.29
2023-05-18T03:37:38.220Z,25.26
2023-05-18T03:38:08.231Z,25.23
2023-05-18T03:38:38.242Z,25.19
2023-05-18T03:39:08.253Z,25.23
2023-05-18T03:39:38.263Z,25.25
2023-05-18T03:40:08.275Z,25.25
2023-05-18T03:40:38.271Z,25.23
2023-05-18T03:41:08.289Z,25.26
2023-05-18T03:41:38.310Z,25.28
2023-05-18T03:42:08.299Z,25.28
2023-05-18T03:42:38.329Z,25.30
2023-05-18T03:43:08.399Z,25.28
2023-05-18T03:43:38.388Z,25.29
2023-05-18T03:44:38.473Z,25.32
2023-05-18T03:45:08.468Z,25.30
2023-05-18T03:45:38.475Z,25.30
2023-05-18T03:46:08.524Z,25.29
2023-05-18T03:46:38.666Z,25.23
2023-05-18T03:47:08.539Z,25.23
2023-05-18T03:47:38.568Z,25.23
2023-05-18T03:48:08.675Z,25.20
2023-05-18T03:48:38.657Z,25.16
2023-05-18T03:49:08.650Z,25.16
2023-05-18T03:49:38.674Z,25.13
2023-05-18T03:50:08.684Z,25.16
2023-05-18T03:50:38.683Z,25.16
2023-05-18T03:51:08.685Z,25.15
2023-05-18T03:51:38.686Z,25.16
2023-05-18T03:52:08.715Z,25.15
2023-05-18T03:52:38.724Z,25.13
2023-05-18T03:53:08.722Z,25.13
2023-05-18T03:53:38.729Z,25.12
2023-05-18T03:54:08.730Z,25.15
2023-05-18T03:54:38.868Z,25.15
2023-05-18T03:55:08.938Z,25.11
2023-05-18T03:55:39.020Z,25.12
2023-05-18T03:56:09.105Z,25.12
2023-05-18T03:56:39.194Z,25.12
2023-05-18T03:57:09.280Z,25.11
2023-05-18T03:57:39.360Z,25.12
2023-05-18T03:58:09.456Z,25.12
2023-05-18T03:58:39.575Z,25.12
2023-05-18T03:59:09.641Z,25.12
2023-05-18T03:59:39.728Z,25.13
2023-05-18T04:00:09.834Z,25.12
2023-05-18T04:00:39.913Z,25.09
2023-05-18T04:01:10.046Z,25.08
2023-05-18T04:01:40.037Z,25.08
2023-05-18T04:02:40.143Z,25.09
2023-05-18T04:03:10.144Z,25.11
2023-05-18T04:03:40.215Z,25.09
2023-05-18T04:04:10.299Z,25.11
2023-05-18T04:04:40.216Z,25.09
2023-05-18T04:05:10.228Z,25.11
2023-05-18T04:05:40.224Z,25.12
2023-05-18T04:06:10.258Z,25.12
2023-05-18T04:06:40.256Z,25.11
2023-05-18T04:07:10.266Z,25.13
2023-05-18T04:07:40.274Z,25.11
2023-05-18T04:08:10.278Z,25.12
2023-05-18T04:08:40.297Z,25.12
2023-05-18T04:09:10.302Z,25.11
2023-05-18T04:09:40.311Z,25.13
2023-05-18T04:10:10.310Z,25.12
2023-05-18T04:10:40.329Z,25.09
2023-05-18T04:11:10.326Z,25.11
2023-05-18T04:11:40.336Z,25.08
2023-05-18T04:12:10.344Z,25.09
2023-05-18T04:12:40.345Z,25.06
2023-05-18T04:13:10.361Z,25.08
2023-05-18T04:13:40.363Z,25.08
2023-05-18T04:14:10.412Z,25.08
2023-05-18T04:14:40.390Z,25.06
2023-05-18T04:15:40.481Z,25.08
2023-05-18T04:16:10.516Z,25.09
2023-05-18T04:16:40.608Z,25.11
2023-05-18T04:17:10.624Z,25.11
2023-05-18T04:17:40.686Z,25.09
2023-05-18T04:18:10.826Z,25.11
2023-05-18T04:18:40.798Z,25.15
2023-05-18T04:19:10.803Z,25.18
2023-05-18T04:19:40.783Z,25.18
2023-05-18T04:20:10.803Z,25.18
2023-05-18T04:20:40.825Z,25.18
2023-05-18T04:21:10.832Z,25.18
2023-05-18T04:21:40.836Z,25.18
2023-05-18T04:22:10.840Z,25.19
2023-05-18T04:22:40.849Z,25.19
2023-05-18T04:23:10.853Z,25.19
2023-05-18T04:23:40.913Z,25.18
2023-05-18T04:24:10.916Z,25.18
2023-05-18T04:24:40.937Z,25.22
2023-05-18T04:25:10.961Z,25.23
2023-05-18T04:25:40.981Z,25.22
2023-05-18T04:26:10.983Z,25.22
2023-05-18T04:26:40.981Z,25.26
2023-05-18T04:27:10.988Z,25.23
2023-05-18T04:27:41.033Z,25.26
2023-05-18T04:28:11.047Z,25.25
2023-05-18T04:28:41.050Z,25.26
2023-05-18T04:29:11.057Z,25.28
2023-05-18T04:29:41.105Z,25.29
2023-05-18T04:30:11.084Z,25.29
2023-05-18T04:31:11.095Z,25.33
2023-05-18T04:31:41.136Z,25.32
2023-05-18T04:32:11.365Z,25.32
2023-05-18T04:32:41.319Z,25.33
2023-05-18T04:33:11.249Z,25.34
2023-05-18T04:34:11.337Z,25.34
2023-05-18T04:34:41.345Z,25.34
2023-05-18T04:35:11.365Z,25.33
2023-05-18T04:35:41.364Z,25.33
2023-05-18T04:36:11.371Z,25.37
2023-05-18T04:36:41.380Z,25.34
2023-05-18T04:37:11.397Z,25.36
2023-05-18T04:37:41.543Z,25.37
2023-05-18T04:38:11.476Z,25.40
2023-05-18T04:38:41.497Z,25.40
2023-05-18T04:39:11.491Z,25.37
2023-05-18T04:39:41.494Z,25.39
2023-05-18T04:40:11.516Z,25.40
2023-05-18T04:40:41.520Z,25.41
2023-05-18T04:41:11.525Z,25.43
2023-05-18T04:41:41.532Z,25.44
2023-05-18T04:42:11.541Z,25.44
2023-05-18T04:42:41.555Z,25.46
2023-05-18T04:43:11.563Z,25.49
2023-05-18T04:43:41.572Z,25.50
2023-05-18T04:44:11.569Z,25.49
2023-05-18T04:44:41.581Z,25.47
2023-05-18T04:45:11.623Z,25.50
2023-05-18T04:45:41.627Z,25.47
2023-05-18T04:46:41.690Z,25.50
2023-05-18T04:47:11.708Z,25.49
2023-05-18T04:47:41.735Z,25.51
2023-05-18T04:48:11.797Z,25.47
2023-05-18T04:48:41.823Z,25.50
2023-05-18T04:49:11.832Z,25.49
2023-05-18T04:49:41.838Z,25.47
2023-05-18T04:50:11.858Z,25.50
2023-05-18T04:50:41.863Z,25.50
2023-05-18T04:51:11.861Z,25.49
2023-05-18T04:51:41.868Z,25.49
2023-05-18T04:52:11.894Z,25.49
2023-05-18T04:52:41.905Z,25.51
2023-05-18T04:53:11.930Z,25.47
2023-05-18T04:53:41.937Z,25.49
2023-05-18T04:54:41.964Z,25.46
2023-05-18T04:55:12.055Z,25.46
2023-05-18T04:55:42.140Z,25.44
2023-05-18T04:56:12.237Z,25.46
2023-05-18T04:56:42.338Z,25.47
2023-05-18T04:57:12.442Z,25.46
2023-05-18T04:57:42.461Z,25.49
2023-05-18T04:58:12.544Z,25.47
2023-05-18T04:58:42.622Z,25.46
2023-05-18T04:59:12.707Z,25.44
2023-05-18T04:59:42.798Z,25.41
2023-05-18T05:00:12.917Z,25.39
2023-05-18T05:00:42.986Z,25.41
2023-05-18T05:01:13.141Z,25.37
2023-05-18T05:01:43.184Z,25.39
2023-05-18T05:02:13.213Z,25.39
2023-05-18T05:02:43.254Z,25.40
2023-05-18T05:03:13.303Z,25.37
2023-05-18T05:03:43.447Z,25.39
2023-05-18T05:04:13.339Z,25.40
2023-05-18T05:04:43.333Z,25.37
2023-05-18T05:05:13.334Z,25.44
2023-05-18T05:05:43.373Z,25.40
2023-05-18T05:06:13.389Z,25.40
2023-05-18T05:06:43.450Z,25.46
2023-05-18T05:07:13.453Z,25.41
2023-05-18T05:07:43.469Z,25.40
2023-05-18T05:08:13.472Z,25.39
2023-05-18T05:08:43.476Z,25.40
2023-05-18T05:09:13.481Z,25.41
2023-05-18T05:09:43.488Z,25.40
2023-05-18T05:10:13.484Z,25.40
2023-05-18T05:10:43.518Z,25.41
2023-05-18T05:11:13.505Z,25.41
2023-05-18T05:11:43.537Z,25.43
2023-05-18T05:12:13.535Z,25.41
2023-05-18T05:12:43.570Z,25.41
2023-05-18T05:13:13.582Z,25.41
2023-05-18T05:13:43.599Z,25.39
2023-05-18T05:14:13.589Z,25.43
2023-05-18T05:14:43.595Z,25.41
2023-05-18T05:15:13.604Z,25.41
2023-05-18T05:15:43.771Z,25.41
2023-05-18T05:16:13.699Z,25.43
2023-05-18T05:16:43.723Z,25.40
2023-05-18T05:17:13.728Z,25.40
2023-05-18T05:17:43.831Z,25.43
2023-05-18T05:18:13.927Z,25.41
2023-05-18T05:18:45.923Z,25.41
2023-05-18T05:19:14.142Z,25.40
2023-05-18T05:19:44.160Z,25.40
2023-05-18T05:20:14.154Z,25.41
2023-05-18T05:20:44.177Z,25.40
2023-05-18T05:21:14.208Z,25.41
2023-05-18T05:21:44.204Z,25.41
2023-05-18T05:22:14.214Z,25.43
2023-05-18T05:22:44.302Z,25.40
2023-05-18T05:23:14.263Z,25.40
2023-05-18T05:23:44.270Z,25.37
2023-05-18T05:24:14.272Z,25.40
2023-05-18T05:24:44.284Z,25.39
2023-05-18T05:25:14.301Z,25.37
2023-05-18T05:25:44.328Z,25.39
2023-05-18T05:26:14.330Z,25.36
2023-05-18T05:26:44.408Z,25.32
2023-05-18T05:27:14.417Z,25.34
2023-05-18T05:27:44.427Z,25.34
2023-05-18T05:28:14.591Z,25.33
2023-05-18T05:28:44.504Z,25.34
2023-05-18T05:29:14.639Z,25.34
2023-05-18T05:29:44.549Z,25.36
2023-05-18T05:30:44.698Z,25.36
2023-05-18T05:31:14.757Z,25.36
2023-05-18T05:31:44.715Z,25.34
2023-05-18T05:32:14.730Z,25.37
2023-05-18T05:32:44.778Z,25.40
2023-05-18T05:33:14.933Z,25.41
2023-05-18T05:33:44.946Z,25.40
2023-05-18T05:34:14.971Z,25.44
2023-05-18T05:34:44.981Z,25.44
2023-05-18T05:35:14.999Z,25.44
2023-05-18T05:35:44.994Z,25.44
2023-05-18T05:36:15.011Z,25.47
2023-05-18T05:36:45.021Z,25.47
2023-05-18T05:37:15.037Z,25.49
2023-05-18T05:37:45.067Z,25.50
2023-05-18T05:38:15.069Z,25.50
2023-05-18T05:38:45.101Z,25.50
2023-05-18T05:39:15.117Z,25.51
2023-05-18T05:39:45.146Z,25.53
2023-05-18T05:40:15.164Z,25.56
2023-05-18T05:40:45.164Z,25.56
2023-05-18T05:41:15.166Z,25.56
2023-05-18T05:41:45.193Z,25.60
2023-05-18T05:42:15.189Z,25.58
2023-05-18T05:42:45.198Z,25.63
2023-05-18T05:43:15.202Z,25.64
2023-05-18T05:43:45.240Z,25.63
2023-05-18T05:44:15.247Z,25.61
2023-05-18T05:44:45.264Z,25.67
2023-05-18T05:45:15.280Z,25.68
2023-05-18T05:45:45.287Z,25.70
2023-05-18T05:46:15.316Z,25.70
2023-05-18T05:46:45.465Z,25.74
2023-05-18T05:47:15.580Z,25.71
2023-05-18T05:47:45.518Z,25.75
2023-05-18T05:48:15.770Z,25.74
2023-05-18T05:48:45.447Z,25.75
2023-05-18T05:49:45.530Z,25.78
2023-05-18T05:50:15.553Z,25.81
2023-05-18T05:50:45.546Z,25.81
2023-05-18T05:51:15.544Z,25.83
2023-05-18T05:51:45.552Z,25.85
2023-05-18T05:52:15.577Z,25.87
2023-05-18T05:52:45.627Z,25.87
2023-05-18T05:53:15.617Z,25.88
2023-05-18T05:53:45.614Z,25.91
2023-05-18T05:54:15.719Z,25.92
2023-05-18T05:54:45.825Z,25.94
2023-05-18T05:55:15.899Z,25.94
2023-05-18T05:55:45.984Z,25.94
2023-05-18T05:56:16.067Z,25.96
2023-05-18T05:56:46.152Z,25.98
2023-05-18T05:57:16.254Z,25.95
2023-05-18T05:57:46.320Z,25.95
2023-05-18T05:58:16.410Z,25.98
2023-05-18T05:58:46.500Z,25.96
2023-05-18T05:59:16.605Z,26.01
2023-05-18T05:59:46.676Z,25.99
2023-05-18T06:00:16.748Z,25.96
2023-05-18T06:00:46.841Z,25.95
2023-05-18T06:01:16.946Z,25.96
2023-05-18T06:01:47.062Z,26.03
2023-05-18T06:02:17.388Z,25.99
2023-05-18T06:02:47.173Z,25.98
2023-05-18T06:03:47.460Z,26.03
2023-05-18T06:04:17.390Z,26.06
2023-05-18T06:04:47.439Z,26.06
2023-05-18T06:05:17.345Z,26.09
2023-05-18T06:06:17.439Z,26.06
2023-05-18T06:06:47.450Z,26.11
2023-05-18T06:07:17.703Z,26.08
2023-05-18T06:07:47.482Z,26.06
2023-05-18T06:08:17.584Z,26.08
2023-05-18T06:08:47.568Z,26.11
2023-05-18T06:09:17.566Z,26.12
2023-05-18T06:09:47.661Z,26.11
2023-05-18T06:10:17.665Z,26.13
2023-05-18T06:10:47.673Z,26.12
2023-05-18T06:11:17.776Z,26.11
2023-05-18T06:11:47.804Z,26.12
2023-05-18T06:12:17.797Z,26.15
2023-05-18T06:12:47.808Z,26.13
2023-05-18T06:13:17.841Z,26.12
2023-05-18T06:13:47.828Z,26.13
2023-05-18T06:14:17.837Z,26.13
2023-05-18T06:14:47.829Z,26.16
2023-05-18T06:15:17.848Z,26.20
2023-05-18T06:15:47.855Z,26.19
2023-05-18T06:16:17.900Z,26.19
2023-05-18T06:16:48.183Z,26.18
2023-05-18T06:17:17.946Z,26.16
2023-05-18T06:18:17.998Z,26.20
2023-05-18T06:18:48.035Z,26.22
2023-05-18T06:19:18.175Z,26.22
2023-05-18T06:19:48.146Z,26.23
2023-05-18T06:20:18.157Z,26.25
2023-05-18T06:20:48.168Z,26.25
2023-05-18T06:21:18.327Z,26.29
2023-05-18T06:21:48.230Z,26.28
2023-05-18T06:22:48.518Z,26.32
2023-05-18T06:23:18.418Z,26.35
2023-05-18T06:24:18.521Z,26.36
2023-05-18T06:24:48.639Z,26.40
2023-05-18T06:25:18.653Z,26.37
2023-05-18T06:25:48.679Z,26.40
2023-05-18T06:26:18.819Z,26.42
2023-05-18T06:26:48.722Z,26.42
2023-05-18T06:27:18.844Z,26.43
2023-05-18T06:27:48.747Z,26.46
2023-05-18T06:28:18.755Z,26.43
2023-05-18T06:28:48.764Z,26.43
2023-05-18T06:29:18.797Z,26.46
2023-05-18T06:29:48.976Z,26.44
2023-05-18T06:30:18.874Z,26.46
2023-05-18T06:30:48.993Z,26.46
2023-05-18T06:31:18.965Z,26.48
2023-05-18T06:32:19.113Z,26.48
2023-05-18T06:32:49.058Z,26.47
2023-05-18T06:33:19.236Z,26.47
2023-05-18T06:33:49.162Z,26.48
2023-05-18T06:34:19.261Z,26.47
2023-05-18T06:34:49.280Z,26.47
2023-05-18T06:35:19.301Z,26.46
2023-05-18T06:35:49.463Z,26.46
2023-05-18T06:36:19.357Z,26.44
2023-05-18T06:36:49.499Z,26.47
2023-05-18T06:37:19.392Z,26.46
2023-05-18T06:38:19.445Z,26.42
2023-05-18T06:38:49.454Z,26.44
2023-05-18T06:39:19.619Z,26.43
2023-05-18T06:39:49.548Z,26.44
2023-05-18T06:40:19.669Z,26.42
2023-05-18T06:40:49.565Z,26.44
2023-05-18T06:41:49.686Z,26.40